Time;durP1;ratioP1;P1;durP2;ratioP2;P2;SDS_P1;SDS_P2;PMS_P1;PMS_P2;Temp;Humidity;BMP_temperature;BMP_pressure;BME280_temperature;BME280_humidity;BME280_pressure;Samples;Min_cycle;Max_cycle;Signal;HPM_P1;HPM_P2
2022/04/16 00:01:34;;;;;;;3.72;2.92;;;8.40;99.90;;;;;;4996734;28;20038;-34
2022/04/16 00:04:00;;;;;;;4.45;3.10;;;8.50;99.90;;;;;;4997720;28;20116;-35
2022/04/16 00:06:26;;;;;;;3.13;2.40;;;8.40;99.90;;;;;;4996037;28;20046;-34
2022/04/16 00:08:51;;;;;;;4.00;3.00;;;8.20;99.90;;;;;;4996357;28;20030;-34
2022/04/16 00:11:17;;;;;;;4.28;2.83;;;8.20;99.90;;;;;;4995852;28;20041;-34
2022/04/16 00:13:42;;;;;;;4.15;2.40;;;8.20;99.90;;;;;;4994927;28;20049;-35
2022/04/16 00:16:09;;;;;;;4.03;2.88;;;8.20;99.90;;;;;;4995306;28;20602;-35
2022/04/16 00:18:34;;;;;;;3.08;2.70;;;8.20;99.90;;;;;;4996271;28;20041;-35
2022/04/16 00:21:04;;;;;;;4.03;2.80;;;8.20;99.90;;;;;;4996112;28;20046;-35
2022/04/16 00:23:30;;;;;;;6.95;3.55;;;8.10;99.90;;;;;;4994253;28;20129;-34
2022/04/16 00:25:58;;;;;;;3.80;3.00;;;8.00;99.90;;;;;;4994940;28;20101;-34
2022/04/16 00:28:27;;;;;;;4.35;3.03;;;7.90;99.90;;;;;;4996106;28;20045;-35
2022/04/16 00:30:52;;;;;;;;;;;7.80;99.90;;;;;;4994870;28;20060;-34
2022/04/16 00:33:19;;;;;;;3.22;2.42;;;7.90;99.90;;;;;;4977998;28;20367;-35
2022/04/16 00:35:44;;;;;;;3.13;2.70;;;7.90;99.90;;;;;;4995741;28;20037;-36
2022/04/16 00:38:11;;;;;;;3.53;3.00;;;8.00;99.90;;;;;;4993035;28;20033;-34
2022/04/16 00:40:37;;;;;;;4.00;2.70;;;7.90;99.90;;;;;;4995230;28;20642;-35
2022/04/16 00:43:06;;;;;;;4.28;2.70;;;7.90;99.90;;;;;;4995973;28;20116;-35
2022/04/16 00:45:31;;;;;;;;;;;8.00;99.90;;;;;;4996118;28;20069;-35
2022/04/16 00:47:59;;;;;;;4.03;2.70;;;7.90;99.90;;;;;;4994425;28;19959;-35
2022/04/16 00:50:25;;;;;;;3.88;2.53;;;7.90;99.90;;;;;;4995428;28;20636;-33
2022/04/16 00:52:51;;;;;;;2.80;2.45;;;7.90;99.90;;;;;;4996344;28;21583;-34
2022/04/16 00:55:17;;;;;;;4.07;2.42;;;7.90;99.90;;;;;;4997032;28;20487;-35
2022/04/16 00:57:43;;;;;;;3.35;2.72;;;7.80;99.90;;;;;;4995534;28;20040;-35
2022/04/16 01:00:12;;;;;;;4.05;2.70;;;7.80;99.90;;;;;;4996954;28;20719;-34
2022/04/16 01:02:39;;;;;;;4.45;2.55;;;7.70;99.90;;;;;;4994196;28;20038;-35
2022/04/16 01:05:06;;;;;;;2.83;2.35;;;7.50;99.90;;;;;;4971744;28;20033;-35
2022/04/16 01:07:32;;;;;;;4.25;3.08;;;7.40;99.90;;;;;;4991156;28;20040;-34
2022/04/16 01:09:58;;;;;;;7.40;2.80;;;7.50;99.90;;;;;;4990091;28;20491;-33
2022/04/16 01:12:23;;;;;;;4.05;2.85;;;7.50;99.90;;;;;;4991713;28;20316;-35
2022/04/16 01:14:50;;;;;;;4.32;2.40;;;7.50;99.90;;;;;;4990817;28;21091;-35
2022/04/16 01:17:17;;;;;;;5.65;3.28;;;7.50;99.90;;;;;;4988746;28;20043;-34
2022/04/16 01:19:43;;;;;;;3.80;2.83;;;7.50;99.90;;;;;;4990318;28;21306;-34
2022/04/16 01:22:13;;;;;;;6.13;3.13;;;7.50;99.90;;;;;;4991483;28;20315;-35
2022/04/16 01:24:43;;;;;;;5.20;3.08;;;7.30;99.90;;;;;;4988147;28;20048;-33
2022/04/16 01:27:10;;;;;;;3.67;2.63;;;7.10;99.90;;;;;;4989806;28;21836;-33
2022/04/16 01:29:36;;;;;;;4.53;2.72;;;7.00;99.90;;;;;;4990566;28;20041;-35
2022/04/16 01:32:02;;;;;;;3.72;2.78;;;7.00;99.90;;;;;;4993750;28;20034;-33
2022/04/16 01:34:29;;;;;;;3.03;2.15;;;7.00;99.90;;;;;;4989448;28;20565;-33
2022/04/16 01:36:54;;;;;;;3.45;2.50;;;7.00;99.90;;;;;;4988662;28;20495;-34
2022/04/16 01:39:20;;;;;;;2.53;2.33;;;7.00;99.90;;;;;;4992041;28;20122;-34
2022/04/16 01:41:46;;;;;;;4.03;2.65;;;7.00;99.90;;;;;;4992609;28;20030;-34
2022/04/16 01:44:12;;;;;;;3.90;2.58;;;7.00;99.90;;;;;;4991109;28;20040;-35
2022/04/16 01:46:37;;;;;;;4.28;2.72;;;6.90;99.90;;;;;;4989702;28;20688;-33
2022/04/16 01:49:03;;;;;;;5.82;2.47;;;6.80;99.90;;;;;;4990314;28;20316;-34
2022/04/16 01:51:29;;;;;;;3.35;2.80;;;6.70;99.90;;;;;;4976511;28;20037;-34
2022/04/16 01:53:55;;;;;;;4.18;2.85;;;6.70;99.90;;;;;;4997242;28;20502;-34
2022/04/16 01:56:20;;;;;;;3.65;2.30;;;6.60;99.90;;;;;;4992860;28;20124;-34
2022/04/16 01:58:46;;;;;;;4.43;2.50;;;6.60;99.90;;;;;;4993409;28;20399;-35
2022/04/16 02:01:11;;;;;;;4.30;2.50;;;6.60;99.90;;;;;;4994261;28;20401;-34
2022/04/16 02:03:37;;;;;;;4.97;2.80;;;6.50;99.90;;;;;;4998812;28;21713;-34
2022/04/16 02:06:06;;;;;;;3.25;2.42;;;6.60;99.90;;;;;;4995398;28;20545;-34
2022/04/16 02:08:32;;;;;;;3.88;2.55;;;6.60;99.90;;;;;;4992301;28;20468;-35
2022/04/16 02:10:58;;;;;;;3.22;2.80;;;6.60;99.90;;;;;;4995018;28;20026;-33
2022/04/16 02:13:24;;;;;;;5.03;2.83;;;6.60;99.90;;;;;;4995427;28;20183;-33
2022/04/16 02:15:49;;;;;;;4.93;3.30;;;6.60;99.90;;;;;;4993175;28;20029;-33
2022/04/16 02:18:15;;;;;;;3.72;2.72;;;6.60;99.90;;;;;;4992942;28;20040;-34
2022/04/16 02:20:43;;;;;;;5.30;3.28;;;6.60;99.90;;;;;;4995355;28;20053;-35
2022/04/16 02:23:09;;;;;;;;;;;6.50;99.90;;;;;;4995233;28;20038;-35
2022/04/16 02:25:35;;;;;;;4.13;2.65;;;6.50;99.90;;;;;;4995975;28;20466;-35
2022/04/16 02:28:01;;;;;;;5.88;3.00;;;6.40;99.90;;;;;;4993800;28;20018;-34
2022/04/16 02:30:30;;;;;;;4.28;3.08;;;6.20;99.90;;;;;;4993558;28;20026;-34
2022/04/16 02:32:56;;;;;;;4.60;2.50;;;6.20;99.90;;;;;;4996182;28;20022;-34
2022/04/16 02:35:23;;;;;;;4.97;2.72;;;6.10;99.90;;;;;;4995776;28;20537;-35
2022/04/16 02:37:48;;;;;;;3.08;2.63;;;6.20;99.90;;;;;;4992535;28;20025;-35
2022/04/16 02:40:15;;;;;;;4.50;2.80;;;6.20;99.90;;;;;;4993086;28;20073;-34
2022/04/16 02:42:42;;;;;;;4.50;2.65;;;6.20;99.90;;;;;;4993357;28;20754;-34
2022/04/16 02:47:55;;;;;;;3.33;2.40;;;6.20;99.90;;;;;;4992883;28;20037;-35
2022/04/16 02:50:24;;;;;;;4.68;3.08;;;6.20;99.90;;;;;;4993583;28;20029;-35
2022/04/16 02:52:55;;;;;;;5.35;3.05;;;6.10;99.90;;;;;;4998597;28;20026;-34
2022/04/16 02:55:21;;;;;;;3.75;2.90;;;6.00;99.90;;;;;;4995317;28;20033;-36
2022/04/16 02:57:49;;;;;;;5.55;2.72;;;6.00;99.90;;;;;;4991820;28;20030;-35
2022/04/16 03:00:15;;;;;;;5.17;3.10;;;5.90;99.90;;;;;;4993712;28;20034;-35
2022/04/16 03:02:41;;;;;;;3.60;2.70;;;5.90;99.90;;;;;;4994784;28;20515;-34
2022/04/16 03:05:08;;;;;;;3.88;2.92;;;5.90;99.90;;;;;;4996235;28;20061;-35
2022/04/16 03:07:34;;;;;;;4.90;3.30;;;5.80;99.90;;;;;;4991556;28;20595;-35
2022/04/16 03:10:02;;;;;;;4.60;3.28;;;5.80;99.90;;;;;;4994698;28;20028;-34
2022/04/16 03:12:28;;;;;;;3.78;2.90;;;5.80;99.90;;;;;;4988949;28;20460;-35
2022/04/16 03:17:39;;;;;;;3.60;2.70;;;5.60;99.90;;;;;;4990549;28;20088;-34
2022/04/16 03:20:06;;;;;;;2.88;2.58;;;5.50;99.90;;;;;;4993277;28;20562;-35
2022/04/16 03:22:37;;;;;;;2.50;2.25;;;5.40;99.90;;;;;;4992421;28;20120;-35
2022/04/16 03:25:09;;;;;;;2.65;2.17;;;5.20;99.90;;;;;;4992921;28;20038;-34
2022/04/16 03:27:35;;;;;;;2.47;2.28;;;5.00;99.90;;;;;;4989307;28;20037;-34
2022/04/16 03:30:01;;;;;;;2.63;1.98;;;4.90;99.90;;;;;;4991816;28;20066;-35
2022/04/16 03:32:26;;;;;;;3.40;1.83;;;4.80;99.90;;;;;;4988838;28;20129;-33
2022/04/16 03:34:52;;;;;;;2.80;2.05;;;4.40;99.90;;;;;;4993062;28;20037;-35
2022/04/16 03:37:18;;;;;;;2.20;2.00;;;4.30;99.90;;;;;;4991347;28;20029;-34
2022/04/16 03:39:44;;;;;;;2.50;2.30;;;4.20;99.90;;;;;;4991661;28;20034;-35
2022/04/16 03:42:10;;;;;;;3.65;2.47;;;4.30;99.90;;;;;;4992546;28;20038;-35
2022/04/16 03:44:37;;;;;;;3.45;2.20;;;4.50;99.90;;;;;;4992232;28;20025;-34
2022/04/16 03:47:03;;;;;;;3.35;2.40;;;4.60;99.90;;;;;;4992171;28;20041;-35
2022/04/16 03:49:29;;;;;;;2.53;2.33;;;4.80;99.90;;;;;;4991173;28;20471;-35
2022/04/16 03:51:54;;;;;;;4.07;2.58;;;4.90;99.90;;;;;;4991758;28;20080;-34
2022/04/16 04:00:01;;;;;;;3.67;2.65;;;5.10;99.90;;;;;;4990792;28;20585;-35
2022/04/16 04:02:28;;;;;;;4.43;2.55;;;5.10;99.90;;;;;;4993124;28;20125;-35
2022/04/16 04:04:55;;;;;;;4.15;2.85;;;5.10;99.90;;;;;;4993002;28;20076;-35
2022/04/16 04:07:20;;;;;;;3.83;2.83;;;5.10;99.90;;;;;;4992258;28;20124;-35
2022/04/16 04:09:46;;;;;;;4.22;2.90;;;5.10;99.90;;;;;;4992356;28;20028;-35
2022/04/16 04:12:13;;;;;;;2.90;2.47;;;4.90;99.90;;;;;;4990941;28;20037;-34
2022/04/16 04:14:45;;;;;;;2.88;2.45;;;4.90;99.90;;;;;;4992125;28;20411;-34
2022/04/16 04:17:11;;;;;;;3.35;2.45;;;4.90;99.90;;;;;;4992542;28;20018;-35
2022/04/16 04:19:39;;;;;;;4.20;3.05;;;4.90;99.90;;;;;;4990577;28;20163;-35
2022/04/16 04:22:06;;;;;;;4.83;3.57;;;4.50;99.90;;;;;;4991909;28;20626;-36
2022/04/16 04:24:32;;;;;;;4.45;3.20;;;4.30;99.90;;;;;;4992415;28;20030;-35
2022/04/16 04:26:59;;;;;;;5.63;3.25;;;4.30;99.90;;;;;;4991488;28;20052;-35
2022/04/16 04:29:25;;;;;;;3.67;2.60;;;4.40;99.90;;;;;;4991514;28;20026;-34
2022/04/16 04:31:51;;;;;;;5.85;2.50;;;4.50;99.90;;;;;;4987601;28;20140;-35
2022/04/16 04:34:17;;;;;;;2.10;1.88;;;4.30;99.90;;;;;;4994225;28;20036;-34
2022/04/16 04:36:43;;;;;;;1.73;1.63;;;4.20;99.90;;;;;;4990073;28;20032;-34
2022/04/16 04:39:08;;;;;;;3.05;2.10;;;4.00;99.90;;;;;;4991473;28;20117;-35
2022/04/16 04:41:34;;;;;;;2.33;1.60;;;3.90;99.90;;;;;;4991665;28;20112;-33
2022/04/16 04:43:59;;;;;;;2.03;1.80;;;4.10;99.90;;;;;;4991095;28;20036;-34
2022/04/16 04:46:25;;;;;;;2.45;1.90;;;4.30;99.90;;;;;;4992315;28;20120;-35
2022/04/16 04:48:51;;;;;;;3.17;2.22;;;4.40;99.90;;;;;;4989995;28;20026;-35
2022/04/16 04:51:16;;;;;;;3.33;1.92;;;4.50;99.90;;;;;;4990206;28;20095;-34
2022/04/16 04:53:42;;;;;;;2.90;2.35;;;4.60;99.90;;;;;;4990570;28;20033;-33
2022/04/16 04:56:08;;;;;;;3.60;2.42;;;4.60;99.90;;;;;;4989317;28;20546;-34
2022/04/16 04:58:34;;;;;;;2.92;2.28;;;4.60;99.90;;;;;;4988191;28;20416;-35
2022/04/16 05:00:59;;;;;;;3.22;2.63;;;4.60;99.90;;;;;;4988707;28;20093;-35
2022/04/16 05:03:25;;;;;;;3.08;1.90;;;4.70;99.90;;;;;;4989294;28;20025;-33
2022/04/16 05:05:50;;;;;;;2.97;2.40;;;4.80;99.90;;;;;;4991103;28;20475;-34
2022/04/16 05:08:16;;;;;;;4.47;2.30;;;4.80;99.90;;;;;;4989495;28;20034;-35
2022/04/16 05:10:42;;;;;;;3.17;2.35;;;4.80;99.90;;;;;;4990604;28;20084;-34
2022/04/16 05:13:08;;;;;;;4.53;2.22;;;4.80;99.90;;;;;;4991862;28;20042;-35
2022/04/16 05:15:33;;;;;;;2.25;2.05;;;4.70;99.90;;;;;;4993650;28;20480;-35
2022/04/16 05:17:59;;;;;;;6.00;2.50;;;4.70;99.90;;;;;;4992591;28;20041;-35
2022/04/16 05:20:25;;;;;;;3.65;2.75;;;4.70;99.90;;;;;;4987250;28;20062;-35
2022/04/16 05:22:50;;;;;;;3.50;2.40;;;4.60;99.90;;;;;;4989419;28;20040;-35
2022/04/16 05:25:16;;;;;;;8.70;2.50;;;4.70;99.90;;;;;;4990998;28;20029;-35
2022/04/16 05:27:42;;;;;;;4.20;2.38;;;4.80;99.90;;;;;;4990715;28;20041;-35
2022/04/16 05:30:22;;;;;;;2.15;2.00;;;4.90;99.90;;;;;;4991067;28;20458;-35
2022/04/16 05:32:50;;;;;;;4.00;2.40;;;5.00;99.90;;;;;;4999064;28;20060;-35
2022/04/16 05:35:16;;;;;;;2.07;1.97;;;5.00;99.90;;;;;;4997362;28;20540;-34
2022/04/16 05:37:42;;;;;;;2.08;1.88;;;4.90;99.90;;;;;;4993258;28;20026;-35
2022/04/16 05:40:09;;;;;;;2.20;2.00;;;4.80;99.90;;;;;;4996349;28;20112;-34
2022/04/16 05:42:40;;;;;;;4.03;2.67;;;4.80;99.90;;;;;;4995266;28;20025;-35
2022/04/16 05:45:07;;;;;;;3.20;2.90;;;4.90;99.90;;;;;;4997646;28;20026;-35
2022/04/16 05:47:32;;;;;;;2.80;2.60;;;5.00;99.90;;;;;;4996459;28;20161;-35
2022/04/16 05:49:58;;;;;;;3.70;2.63;;;4.80;99.90;;;;;;4995421;28;20034;-35
2022/04/16 05:52:24;;;;;;;4.97;3.28;;;4.80;99.90;;;;;;4995723;28;20166;-34
2022/04/16 05:54:51;;;;;;;5.18;3.92;;;4.80;99.90;;;;;;4995859;28;20552;-34
2022/04/16 05:57:18;;;;;;;5.30;3.60;;;4.80;99.90;;;;;;4995910;28;20510;-35
2022/04/16 05:59:44;;;;;;;4.20;3.30;;;4.90;99.90;;;;;;4995861;28;20642;-35
2022/04/16 06:02:10;;;;;;;3.80;3.00;;;5.00;99.90;;;;;;4994034;28;20041;-34
2022/04/16 06:04:36;;;;;;;5.13;4.00;;;5.00;99.90;;;;;;4997470;28;20394;-35
2022/04/16 06:07:02;;;;;;;3.85;3.47;;;5.10;99.90;;;;;;4998187;28;20046;-36
2022/04/16 06:09:28;;;;;;;5.28;3.80;;;5.30;99.90;;;;;;4994005;28;20113;-36
2022/04/16 06:12:01;;;;;;;7.20;4.10;;;5.40;99.90;;;;;;4995199;28;20018;-36
2022/04/16 06:14:28;;;;;;;5.13;3.97;;;5.50;99.90;;;;;;4993160;28;20559;-35
2022/04/16 06:16:53;;;;;;;4.22;3.60;;;5.60;99.90;;;;;;4996545;28;20041;-36
2022/04/16 06:19:19;;;;;;;5.20;3.80;;;5.60;99.90;;;;;;4993971;28;20727;-36
2022/04/16 06:21:45;;;;;;;5.25;4.05;;;5.70;99.90;;;;;;4994733;28;20042;-37
2022/04/16 06:24:10;;;;;;;5.28;4.07;;;5.80;99.90;;;;;;4995739;28;20034;-37
2022/04/16 06:26:36;;;;;;;5.57;4.05;;;5.80;99.90;;;;;;4993445;28;20056;-36
2022/04/16 06:29:01;;;;;;;5.60;3.90;;;6.00;99.90;;;;;;4993533;28;20037;-36
2022/04/16 06:31:27;;;;;;;5.95;3.72;;;6.10;99.90;;;;;;4988902;28;20030;-35
2022/04/16 06:33:53;;;;;;;6.65;4.07;;;6.10;99.90;;;;;;4995383;28;20037;-35
2022/04/16 06:36:18;;;;;;;6.25;4.22;;;6.20;99.90;;;;;;4994546;28;20117;-36
2022/04/16 06:38:44;;;;;;;6.35;4.28;;;6.30;99.90;;;;;;4997692;28;20438;-36
2022/04/16 06:41:10;;;;;;;4.65;3.72;;;6.30;99.90;;;;;;4997909;28;20036;-35
2022/04/16 06:43:35;;;;;;;6.22;3.67;;;6.40;99.90;;;;;;4998873;28;20034;-34
2022/04/16 06:46:02;;;;;;;4.70;3.70;;;6.40;99.90;;;;;;5005323;28;20532;-36
2022/04/16 06:48:28;;;;;;;5.82;3.83;;;6.40;99.90;;;;;;5000440;28;20096;-36
2022/04/16 06:50:54;;;;;;;6.00;4.10;;;6.30;99.90;;;;;;5003607;28;20030;-35
2022/04/16 06:53:20;;;;;;;4.88;3.63;;;6.30;99.90;;;;;;4998659;28;20680;-35
2022/04/16 06:55:45;;;;;;;9.77;4.60;;;6.40;99.90;;;;;;5002756;28;20041;-35
2022/04/16 06:58:11;;;;;;;5.57;3.88;;;6.40;99.90;;;;;;5001434;28;20026;-36
2022/04/16 07:00:37;;;;;;;5.60;3.72;;;6.50;99.90;;;;;;5001426;28;20038;-35
2022/04/16 07:03:03;;;;;;;6.97;4.55;;;6.50;99.90;;;;;;4995814;28;20030;-34
2022/04/16 07:05:30;;;;;;;7.45;4.15;;;6.60;99.90;;;;;;5002778;28;20744;-36
2022/04/16 07:07:56;;;;;;;7.15;4.40;;;6.80;99.90;;;;;;5004184;28;20018;-34
2022/04/16 07:10:22;;;;;;;7.85;4.68;;;6.90;99.90;;;;;;4996870;28;20038;-36
2022/04/16 07:12:47;;;;;;;7.00;4.63;;;7.00;99.90;;;;;;4999226;28;20030;-36
2022/04/16 07:15:13;;;;;;;7.35;4.30;;;7.00;99.90;;;;;;5000867;28;20034;-35
2022/04/16 07:17:38;;;;;;;9.65;4.57;;;7.10;99.90;;;;;;4998767;28;20088;-35
2022/04/16 07:20:04;;;;;;;7.75;5.00;;;7.10;99.90;;;;;;4996598;28;20041;-36
2022/04/16 07:22:30;;;;;;;7.78;4.93;;;7.10;99.90;;;;;;4998554;28;20038;-35
2022/04/16 07:24:56;;;;;;;8.38;4.72;;;7.20;99.90;;;;;;4999067;28;20566;-35
2022/04/16 07:27:21;;;;;;;7.47;4.32;;;7.20;99.90;;;;;;4996814;28;20044;-35
2022/04/16 07:29:47;;;;;;;8.90;4.90;;;7.30;99.90;;;;;;4998529;28;20026;-35
2022/04/16 07:32:13;;;;;;;7.93;4.60;;;7.30;99.90;;;;;;4994795;28;20049;-36
2022/04/16 07:34:38;;;;;;;7.82;4.90;;;7.40;99.90;;;;;;4997230;28;20033;-34
2022/04/16 07:37:04;;;;;;;7.28;4.15;;;7.40;99.90;;;;;;4995193;28;20042;-34
2022/04/16 07:39:30;;;;;;;6.60;4.13;;;7.40;99.90;;;;;;4996395;28;20043;-34
2022/04/16 07:41:57;;;;;;;7.05;4.05;;;7.40;99.90;;;;;;5003871;28;20021;-34
2022/04/16 07:44:23;;;;;;;9.10;3.75;;;7.40;99.90;;;;;;5004169;28;20060;-35
2022/04/16 07:46:48;;;;;;;5.45;3.80;;;7.40;99.90;;;;;;4999319;28;20066;-35
2022/04/16 07:49:17;;;;;;;8.57;4.35;;;7.40;99.90;;;;;;4995211;28;20518;-35
2022/04/16 07:51:43;;;;;;;6.32;3.92;;;7.40;99.90;;;;;;4999353;28;20520;-34
2022/04/16 07:54:09;;;;;;;6.68;4.07;;;7.50;99.90;;;;;;4998918;28;20049;-33
2022/04/16 07:56:34;;;;;;;7.55;4.57;;;7.50;99.90;;;;;;5003299;28;20034;-35
2022/04/16 07:59:00;;;;;;;8.48;4.60;;;7.60;99.90;;;;;;5000785;28;21098;-35
2022/04/16 08:01:25;;;;;;;7.82;4.63;;;7.60;99.90;;;;;;4996396;28;20037;-34
2022/04/16 08:03:51;;;;;;;5.70;3.88;;;7.70;99.90;;;;;;4997457;28;20021;-34
2022/04/16 08:06:17;;;;;;;8.02;4.43;;;7.80;99.90;;;;;;5000461;28;20391;-34
2022/04/16 08:08:43;;;;;;;6.13;4.32;;;7.90;99.90;;;;;;4997817;28;20034;-34
2022/04/16 08:11:10;;;;;;;7.88;5.10;;;7.90;99.90;;;;;;4997242;28;20510;-34
2022/04/16 08:13:35;;;;;;;8.70;4.93;;;7.90;99.90;;;;;;4996417;28;20084;-35
2022/04/16 08:16:01;;;;;;;10.02;5.82;;;7.90;99.90;;;;;;4995192;28;20034;-36
2022/04/16 08:18:26;;;;;;;9.05;5.65;;;7.90;99.90;;;;;;4994029;28;20040;-36
2022/04/16 08:20:52;;;;;;;8.70;5.45;;;7.90;99.90;;;;;;4992518;28;20053;-34
2022/04/16 08:23:18;;;;;;;9.02;5.93;;;7.80;99.90;;;;;;4995005;28;20030;-34
2022/04/16 08:25:44;;;;;;;8.80;5.53;;;8.00;99.90;;;;;;4995836;28;20415;-34
2022/04/16 08:28:09;;;;;;;10.07;5.65;;;8.10;99.90;;;;;;4993947;28;20865;-35
2022/04/16 08:30:35;;;;;;;9.75;6.05;;;8.10;99.90;;;;;;4993112;28;20037;-36
2022/04/16 08:33:01;;;;;;;11.73;6.50;;;8.20;99.90;;;;;;4995047;28;20030;-35
2022/04/16 08:35:27;;;;;;;11.38;6.00;;;8.30;99.90;;;;;;4997558;28;20137;-36
2022/04/16 08:37:53;;;;;;;9.10;5.90;;;8.30;99.90;;;;;;5000252;28;20072;-36
2022/04/16 08:40:19;;;;;;;10.18;6.30;;;8.30;99.90;;;;;;5001539;28;20084;-36
2022/04/16 08:42:48;;;;;;;7.55;5.32;;;8.30;99.90;;;;;;4995912;28;20036;-35
2022/04/16 08:45:14;;;;;;;8.07;4.80;;;8.30;99.90;;;;;;4996247;28;20033;-35
2022/04/16 08:47:40;;;;;;;8.20;5.63;;;8.30;99.90;;;;;;4994420;28;20045;-35
2022/04/16 08:50:08;;;;;;;8.65;5.80;;;8.30;99.90;;;;;;5000107;28;20117;-35
2022/04/16 08:52:37;;;;;;;10.25;6.60;;;8.30;99.90;;;;;;4997017;28;20038;-35
2022/04/16 08:55:03;;;;;;;;;;;8.30;99.90;;;;;;4992960;28;20037;-35
2022/04/16 08:57:29;;;;;;;9.70;5.65;;;8.30;99.90;;;;;;4998225;28;19951;-35
2022/04/16 08:59:57;;;;;;;9.77;5.72;;;8.30;99.90;;;;;;4995482;28;20029;-35
2022/04/16 09:02:24;;;;;;;8.73;5.53;;;8.20;99.90;;;;;;4993545;28;20041;-35
2022/04/16 09:05:05;;;;;;;7.37;5.27;;;8.30;99.90;;;;;;4998557;28;20288;-34
2022/04/16 09:07:31;;;;;;;8.52;5.45;;;8.40;99.90;;;;;;4997597;28;20034;-36
2022/04/16 09:10:09;;;;;;;7.65;4.70;;;8.40;99.90;;;;;;4981444;28;20045;-35
2022/04/16 09:12:35;;;;;;;;;;;8.40;99.90;;;;;;4998109;28;20107;-36
2022/04/16 09:15:08;;;;;;;7.60;4.70;;;8.60;99.90;;;;;;4997058;28;19917;-34
2022/04/16 09:17:34;;;;;;;7.13;4.40;;;8.70;99.90;;;;;;4994098;28;20068;-35
2022/04/16 09:20:00;;;;;;;9.88;6.15;;;8.90;99.90;;;;;;4980731;28;20141;-36
2022/04/16 09:22:33;;;;;;;8.02;5.00;;;9.00;99.90;;;;;;4993142;28;20114;-36
2022/04/16 09:24:59;;;;;;;9.15;5.75;;;9.30;99.90;;;;;;4993342;28;20030;-35
2022/04/16 09:27:25;;;;;;;7.20;4.50;;;9.40;99.90;;;;;;4992269;28;20384;-35
2022/04/16 09:29:52;;;;;;;6.32;4.70;;;9.30;99.90;;;;;;4995702;28;20030;-36
2022/04/16 09:32:24;;;;;;;5.13;4.30;;;9.10;99.90;;;;;;4996572;28;20037;-34
2022/04/16 09:34:53;;;;;;;9.00;5.45;;;8.80;99.90;;;;;;4996562;28;20041;-36
2022/04/16 09:37:21;;;;;;;7.20;4.93;;;8.60;99.90;;;;;;4995388;28;20061;-35
2022/04/16 09:39:47;;;;;;;7.82;5.20;;;8.50;99.90;;;;;;4995449;28;20072;-34
2022/04/16 09:42:23;;;;;;;6.60;4.75;;;8.60;99.90;;;;;;5000928;28;20117;-35
2022/04/16 09:44:48;;;;;;;7.80;5.05;;;8.60;99.90;;;;;;4997304;28;20045;-35
2022/04/16 09:47:15;;;;;;;6.40;4.82;;;8.50;99.90;;;;;;4996927;28;20038;-35
2022/04/16 09:49:41;;;;;;;6.38;4.65;;;8.30;99.90;;;;;;4999530;28;20054;-35
2022/04/16 09:52:07;;;;;;;6.47;4.97;;;8.20;99.90;;;;;;5000696;28;20485;-33
2022/04/16 09:54:34;;;;;;;5.93;4.80;;;8.10;99.90;;;;;;4991987;28;20030;-35
2022/04/16 09:57:03;;;;;;;7.20;5.47;;;8.10;99.90;;;;;;4998672;28;20613;-34
2022/04/16 09:59:35;;;;;;;6.38;4.85;;;8.10;99.90;;;;;;4994885;28;20057;-35
2022/04/16 10:02:02;;;;;;;5.88;4.85;;;8.20;99.90;;;;;;4992483;28;20025;-35
2022/04/16 10:04:29;;;;;;;7.47;4.78;;;8.30;99.90;;;;;;4997895;28;20058;-35
2022/04/16 10:06:55;;;;;;;8.45;5.72;;;8.40;99.90;;;;;;4996630;28;20675;-34
2022/04/16 10:09:24;;;;;;;7.47;5.00;;;8.50;99.90;;;;;;4996304;28;20018;-35
2022/04/16 10:15:18;;;;;;;6.90;5.30;;;8.70;99.90;;;;;;4998550;28;20037;-35
2022/04/16 10:17:50;;;;;;;6.95;5.25;;;8.90;99.90;;;;;;4999499;28;20036;-34
2022/04/16 10:20:19;;;;;;;4.68;4.18;;;9.10;99.90;;;;;;4996695;28;20450;-35
2022/04/16 10:23:23;;;;;;;8.38;5.22;;;9.20;99.90;;;;;;4998665;28;20507;-34
2022/04/16 10:25:49;;;;;;;6.75;4.60;;;9.20;99.90;;;;;;4985676;28;20517;-34
2022/04/16 10:28:23;;;;;;;5.38;4.72;;;9.30;99.90;;;;;;4997828;28;20029;-34
2022/04/16 10:30:53;;;;;;;5.13;4.30;;;9.40;99.90;;;;;;4999978;28;20042;-34
2022/04/16 10:33:24;;;;;;;5.07;4.25;;;9.40;99.90;;;;;;4998702;28;20698;-33
2022/04/16 10:35:54;;;;;;;4.72;4.32;;;9.40;99.90;;;;;;4993180;28;20898;-35
2022/04/16 10:38:23;;;;;;;4.85;4.18;;;9.70;99.90;;;;;;4998611;28;20539;-34
2022/04/16 10:41:00;;;;;;;4.80;4.30;;;9.80;99.90;;;;;;4997151;28;20018;-34
2022/04/16 10:43:31;;;;;;;5.55;4.97;;;10.00;99.90;;;;;;5002707;28;20505;-34
2022/04/16 10:46:04;;;;;;;5.28;4.50;;;10.00;99.90;;;;;;4997032;28;20025;-34
2022/04/16 10:48:37;;;;;;;5.63;4.53;;;9.90;99.90;;;;;;4998591;28;20040;-33
2022/04/16 10:51:05;;;;;;;5.55;4.13;;;10.00;99.90;;;;;;5003764;28;20049;-32
2022/04/16 10:53:36;;;;;;;5.28;4.22;;;10.00;99.90;;;;;;5003618;28;20076;-34
2022/04/16 10:56:21;;;;;;;4.45;3.80;;;10.10;99.90;;;;;;4998502;28;20025;-33
2022/04/16 10:58:58;;;;;;;4.43;3.42;;;10.00;99.90;;;;;;4997716;28;20026;-35
2022/04/16 11:01:26;;;;;;;4.80;3.90;;;10.20;99.90;;;;;;4993993;28;20069;-34
2022/04/16 11:03:54;;;;;;;5.73;4.53;;;10.40;99.90;;;;;;4998021;28;20041;-34
2022/04/16 11:06:20;;;;;;;5.05;4.35;;;10.70;99.90;;;;;;5000417;28;21513;-34
2022/04/16 11:08:46;;;;;;;4.70;4.20;;;10.80;99.90;;;;;;4997164;28;20845;-34
2022/04/16 11:11:14;;;;;;;6.20;4.47;;;10.80;99.90;;;;;;4998527;28;20030;-34
2022/04/16 11:13:41;;;;;;;4.10;3.50;;;10.60;99.90;;;;;;4999530;28;20148;-34
2022/04/16 11:16:07;;;;;;;5.80;3.90;;;10.50;99.90;;;;;;4997041;28;20176;-34
2022/04/16 11:18:44;;;;;;;4.65;3.85;;;10.40;99.90;;;;;;4996282;28;20030;-34
2022/04/16 11:21:25;;;;;;;5.18;4.00;;;10.10;99.90;;;;;;4995136;28;20214;-34
2022/04/16 11:23:52;;;;;;;4.57;4.18;;;10.00;99.90;;;;;;4997856;28;20033;-34
2022/04/16 11:34:42;;;;;;;3.65;3.30;;;9.90;99.90;;;;;;4964148;28;20069;-33
2022/04/16 11:37:08;;;;;;;4.45;4.03;;;9.90;99.90;;;;;;4997593;28;20452;-34
2022/04/16 11:39:36;;;;;;;4.13;3.47;;;9.80;99.90;;;;;;4995947;28;20042;-34
2022/04/16 11:42:10;;;;;;;5.20;3.50;;;9.80;99.90;;;;;;4997760;28;20026;-34
2022/04/16 11:44:40;;;;;;;4.43;3.40;;;9.80;99.90;;;;;;4995826;28;20038;-34
2022/04/16 11:47:10;;;;;;;4.38;3.13;;;9.80;99.90;;;;;;4995961;28;20076;-34
2022/04/16 11:49:37;;;;;;;4.65;3.30;;;9.90;99.90;;;;;;4996866;28;20038;-34
2022/04/16 11:52:04;;;;;;;3.42;3.05;;;9.90;99.90;;;;;;5000230;28;20653;-33
2022/04/16 11:54:30;;;;;;;5.15;3.70;;;9.80;99.90;;;;;;5001908;28;20404;-35
2022/04/16 11:56:57;;;;;;;4.13;3.15;;;9.70;99.90;;;;;;4993163;28;20117;-35
2022/04/16 11:59:28;;;;;;;4.38;3.28;;;9.70;99.90;;;;;;5001057;28;20656;-35
2022/04/16 12:01:57;;;;;;;4.07;3.10;;;9.80;99.90;;;;;;4998619;28;20038;-35
2022/04/16 12:04:52;;;;;;;4.35;3.40;;;9.80;99.90;;;;;;5002819;28;20041;-34
2022/04/16 12:07:18;;;;;;;4.78;3.65;;;10.00;99.90;;;;;;4979481;28;20060;-34
2022/04/16 12:09:48;;;;;;;5.95;4.15;;;10.10;99.90;;;;;;4998368;28;20026;-35
2022/04/16 12:12:18;;;;;;;5.18;3.90;;;10.10;99.90;;;;;;5000919;28;20045;-34
2022/04/16 12:14:54;;;;;;;4.55;3.92;;;10.30;99.90;;;;;;5001646;28;20479;-35
2022/04/16 12:17:29;;;;;;;4.15;3.42;;;10.30;99.90;;;;;;4999861;28;20041;-36
2022/04/16 12:20:15;;;;;;;5.20;4.40;;;10.30;99.90;;;;;;4997244;28;20034;-35
2022/04/16 12:22:59;;;;;;;6.72;4.20;;;10.40;99.90;;;;;;5009164;28;20095;-35
2022/04/16 12:25:25;;;;;;;4.78;4.25;;;10.70;99.90;;;;;;4997985;28;20125;-35
2022/04/16 12:27:52;;;;;;;7.00;4.45;;;10.90;99.90;;;;;;4995167;28;20041;-33
2022/04/16 12:30:25;;;;;;;8.35;4.38;;;10.80;99.90;;;;;;4992604;28;20034;-34
2022/04/16 12:32:59;;;;;;;7.75;4.80;;;11.00;99.90;;;;;;4995882;28;20042;-35
2022/04/16 12:35:26;;;;;;;4.82;3.90;;;11.40;99.90;;;;;;4995824;28;20562;-34
2022/04/16 12:37:54;;;;;;;11.32;4.30;;;11.30;99.90;;;;;;5000770;28;20034;-35
2022/04/16 12:40:21;;;;;;;5.40;3.65;;;11.30;99.90;;;;;;4995980;28;20033;-34
2022/04/16 12:42:50;;;;;;;5.35;3.80;;;10.90;99.90;;;;;;4995498;28;20038;-35
2022/04/16 12:45:16;;;;;;;5.82;3.72;;;11.00;99.90;;;;;;4997441;28;20033;-34
2022/04/16 12:47:42;;;;;;;6.47;4.40;;;11.30;99.90;;;;;;4996733;28;20022;-34
2022/04/16 12:50:09;;;;;;;5.55;3.63;;;11.60;99.90;;;;;;4998665;28;20361;-33
2022/04/16 12:52:35;;;;;;;4.97;3.80;;;11.60;99.90;;;;;;4999241;28;20570;-34
2022/04/16 12:55:00;;;;;;;6.68;4.60;;;11.70;99.90;;;;;;4996843;28;20036;-34
2022/04/16 12:57:26;;;;;;;6.15;3.90;;;11.70;99.90;;;;;;4999540;28;20026;-35
2022/04/16 12:59:52;;;;;;;8.00;5.18;;;11.70;96.60;;;;;;4994580;28;20044;-34
2022/04/16 13:02:18;;;;;;;5.43;4.30;;;11.60;98.80;;;;;;4999619;28;20495;-33
2022/04/16 13:04:44;;;;;;;5.65;4.00;;;11.60;98.80;;;;;;5002007;28;20029;-33
2022/04/16 13:07:10;;;;;;;6.35;4.65;;;11.80;95.60;;;;;;4995284;28;21123;-35
2022/04/16 13:09:35;;;;;;;6.00;4.50;;;12.00;99.90;;;;;;4998549;28;20676;-32
2022/04/16 13:12:02;;;;;;;4.90;3.92;;;11.90;97.60;;;;;;4997583;28;20272;-34
2022/04/16 13:14:28;;;;;;;6.22;3.85;;;11.70;97.30;;;;;;4997422;28;20350;-33
2022/04/16 13:16:55;;;;;;;5.32;4.32;;;11.70;95.00;;;;;;4996179;28;21517;-33
2022/04/16 13:19:21;;;;;;;4.32;3.70;;;11.90;95.30;;;;;;4994346;28;20038;-33
2022/04/16 13:21:46;;;;;;;6.30;4.00;;;11.60;95.90;;;;;;5000593;28;20072;-33